Time;durP1;ratioP1;P1;durP2;ratioP2;P2;SDS_P1;SDS_P2;PMS_P1;PMS_P2;Temp;Humidity;BMP_temperature;BMP_pressure;BME280_temperature;BME280_humidity;BME280_pressure;Samples;Min_cycle;Max_cycle;Signal;HPM_P1;HPM_P2
2023/04/24 00:02:49;;;;;;;18.90;11.90;;;;;;;10.10;59.65;99284.52;130745;1255;107575;-76
2023/04/24 00:05:54;;;;;;;23.30;12.60;;;;;;;10.07;59.74;99281.14;130836;1254;108164;-76
2023/04/24 00:09:00;;;;;;;17.00;10.20;;;;;;;10.03;60.05;99282.75;130843;1269;107590;-76
2023/04/24 00:12:05;;;;;;;19.00;11.20;;;;;;;10.05;59.99;99278.84;130653;1258;107462;-76
2023/04/24 00:15:12;;;;;;;17.70;11.30;;;;;;;10.08;60.20;99278.70;130803;1253;107506;-76
2023/04/24 00:18:18;;;;;;;17.40;10.80;;;;;;;10.10;59.96;99278.70;130917;1252;107275;-76
2023/04/24 00:21:25;;;;;;;17.70;10.00;;;;;;;10.10;60.40;99277.79;130723;1253;106526;-76
2023/04/24 00:24:31;;;;;;;20.30;12.60;;;;;;;10.10;60.24;99276.36;130632;1257;105953;-77
2023/04/24 00:27:36;;;;;;;68.90;39.40;;;;;;;10.11;60.46;99272.80;130745;1253;106539;-75
2023/04/24 00:30:42;;;;;;;52.60;32.00;;;;;;;10.12;60.50;99271.19;130823;1253;107461;-75
2023/04/24 00:33:48;;;;;;;24.50;15.10;;;;;;;10.05;60.82;99280.38;130830;1257;107272;-75
2023/04/24 00:36:53;;;;;;;18.10;13.20;;;;;;;9.96;60.53;99274.82;130701;1257;108433;-76
2023/04/24 00:39:59;;;;;;;17.00;12.00;;;;;;;9.94;60.65;99272.46;130663;1253;107587;-76
2023/04/24 00:43:04;;;;;;;18.20;11.80;;;;;;;9.90;60.68;99278.27;130661;1266;107550;-76
2023/04/24 00:46:10;;;;;;;15.60;11.40;;;;;;;9.86;60.74;99273.00;130737;1257;107375;-77
2023/04/24 00:49:17;;;;;;;15.90;11.00;;;;;;;9.83;61.03;99268.33;130763;1256;107532;-74
2023/04/24 00:52:24;;;;;;;16.10;11.00;;;;;;;9.80;60.97;99266.00;130860;1253;107286;-74
2023/04/24 00:55:30;;;;;;;15.20;11.20;;;;;;;9.75;61.21;99264.48;130863;1257;107480;-75
2023/04/24 00:58:35;;;;;;;16.50;12.00;;;;;;;9.70;61.00;99265.60;130840;1257;107516;-75
2023/04/24 01:01:42;;;;;;;18.80;12.00;;;;;;;9.65;61.11;99267.02;130680;1257;107559;-76
2023/04/24 01:04:48;;;;;;;15.20;11.50;;;;;;;9.62;61.32;99267.31;130621;1266;107560;-76
2023/04/24 01:07:54;;;;;;;14.80;10.70;;;;;;;9.62;61.24;99263.21;130922;1253;107620;-75
2023/04/24 01:11:01;;;;;;;14.50;10.90;;;;;;;9.60;61.49;99265.05;130776;1258;107747;-77
2023/04/24 01:14:07;;;;;;;14.60;10.00;;;;;;;9.59;61.76;99260.95;130802;1253;107408;-76
2023/04/24 01:17:12;;;;;;;13.40;8.50;;;;;;;9.58;61.82;99261.51;130936;1253;107671;-75
2023/04/24 01:20:20;;;;;;;16.90;10.80;;;;;;;9.64;61.90;99257.52;130786;1257;106476;-76
2023/04/24 01:23:26;;;;;;;15.40;11.10;;;;;;;9.71;62.01;99254.98;130739;1253;107132;-76
2023/04/24 01:26:32;;;;;;;14.50;10.70;;;;;;;9.74;61.89;99253.16;130669;1258;107685;-76
2023/04/24 01:29:38;;;;;;;14.80;10.20;;;;;;;9.75;61.90;99254.70;130817;1253;107214;-76
2023/04/24 01:32:45;;;;;;;16.70;10.80;;;;;;;9.72;62.17;99249.34;130806;1257;106557;-74
2023/04/24 01:35:51;;;;;;;16.00;11.30;;;;;;;9.69;62.46;99246.16;130808;1258;107630;-76
2023/04/24 01:38:57;;;;;;;17.10;11.50;;;;;;;9.67;61.93;99242.67;130741;1256;107513;-77
2023/04/24 01:42:05;;;;;;;17.60;11.20;;;;;;;9.64;62.02;99240.48;130885;1258;106464;-75
2023/04/24 01:45:13;;;;;;;15.00;11.50;;;;;;;9.58;62.19;99239.51;130859;1258;106766;-75
2023/04/24 01:48:19;;;;;;;17.10;12.00;;;;;;;9.53;62.22;99233.41;130716;1257;107543;-76
2023/04/24 01:51:25;;;;;;;15.60;12.00;;;;;;;9.49;62.27;99238.42;130695;1257;107234;-75
2023/04/24 01:54:31;;;;;;;17.90;12.20;;;;;;;9.45;62.53;99234.09;130708;1257;107406;-75
2023/04/24 01:57:37;;;;;;;17.40;12.50;;;;;;;9.42;62.60;99228.02;130570;1258;107424;-76
2023/04/24 02:00:42;;;;;;;15.10;11.50;;;;;;;9.38;62.58;99229.84;130595;1258;107564;-76
2023/04/24 02:03:48;;;;;;;16.50;11.60;;;;;;;9.33;62.88;99229.52;130691;1257;107482;-76
2023/04/24 02:06:53;;;;;;;18.40;12.70;;;;;;;9.29;62.94;99229.97;130620;1257;107545;-79
2023/04/24 02:09:59;;;;;;;16.20;12.20;;;;;;;9.26;62.92;99225.35;130652;1253;107550;-76
2023/04/24 02:13:05;;;;;;;16.40;11.10;;;;;;;9.23;63.10;99222.29;130639;1259;107418;-76
2023/04/24 02:16:11;;;;;;;14.90;9.90;;;;;;;9.22;63.27;99221.47;130648;1255;105706;-76
2023/04/24 02:19:16;;;;;;;17.00;10.90;;;;;;;9.25;63.26;99215.37;130543;1258;107453;-76
2023/04/24 02:22:22;;;;;;;18.20;11.80;;;;;;;9.28;63.32;99210.38;130660;1257;107524;-76
2023/04/24 02:25:27;;;;;;;15.20;11.30;;;;;;;9.31;63.31;99208.10;130628;1253;107406;-76
2023/04/24 02:28:34;;;;;;;16.40;12.20;;;;;;;9.30;63.37;99203.22;130647;1256;107524;-76
2023/04/24 02:31:40;;;;;;;16.70;11.70;;;;;;;9.31;63.43;99200.05;130684;1257;106680;-76
2023/04/24 02:34:45;;;;;;;15.30;11.60;;;;;;;9.26;63.47;99196.16;130601;1253;108808;-77
2023/04/24 02:37:51;;;;;;;18.50;13.30;;;;;;;9.23;63.46;99196.08;130652;1257;107509;-76
2023/04/24 02:40:57;;;;;;;16.70;12.30;;;;;;;9.20;63.81;99191.40;130663;1258;107570;-74
2023/04/24 02:44:02;;;;;;;20.40;13.40;;;;;;;9.19;63.82;99193.98;130676;1256;107314;-77
2023/04/24 02:47:08;;;;;;;19.60;13.50;;;;;;;9.14;63.74;99194.60;130873;1258;106442;-77
2023/04/24 02:50:14;;;;;;;19.10;13.00;;;;;;;9.08;63.99;99192.35;130616;1261;107548;-76
2023/04/24 02:53:19;;;;;;;18.10;12.60;;;;;;;9.04;63.88;99191.91;130696;1258;107278;-76
2023/04/24 02:56:25;;;;;;;17.50;12.50;;;;;;;9.00;63.94;99191.40;130714;1256;107558;-75
2023/04/24 02:59:31;;;;;;;17.70;13.50;;;;;;;8.95;64.05;99188.52;130641;1257;107433;-76
2023/04/24 03:02:37;;;;;;;18.50;13.40;;;;;;;8.88;64.11;99186.89;130865;1258;107555;-76
2023/04/24 03:05:42;;;;;;;16.50;12.20;;;;;;;8.84;64.17;99185.81;130661;1253;106680;-77
2023/04/24 03:08:48;;;;;;;16.10;11.00;;;;;;;8.81;64.22;99189.27;130645;1253;107574;-77
2023/04/24 03:11:53;;;;;;;16.10;11.70;;;;;;;8.80;64.19;99190.23;130816;1257;107409;-75
2023/04/24 03:14:59;;;;;;;17.50;12.80;;;;;;;8.80;64.29;99186.02;130803;1253;107562;-76
2023/04/24 03:18:05;;;;;;;16.80;12.10;;;;;;;8.83;64.31;99187.44;130652;1256;107679;-76
2023/04/24 03:21:10;;;;;;;17.30;12.50;;;;;;;8.83;64.34;99185.34;130681;1258;107621;-73
2023/04/24 03:24:16;;;;;;;16.00;12.50;;;;;;;8.82;64.37;99187.28;130729;1258;107557;-75
2023/04/24 03:27:22;;;;;;;17.50;12.90;;;;;;;8.83;64.40;99188.92;131079;1258;107379;-73
2023/04/24 03:30:32;;;;;;;16.60;12.60;;;;;;;8.81;64.55;99188.23;130854;1257;108484;-74
2023/04/24 03:33:39;;;;;;;17.70;13.30;;;;;;;8.80;64.66;99187.07;130833;1253;107528;-70
2023/04/24 03:36:47;;;;;;;19.00;13.10;;;;;;;8.81;64.70;99189.09;130820;1253;107572;-72
2023/04/24 03:39:53;;;;;;;15.50;12.40;;;;;;;8.81;64.84;99188.77;130963;1255;107404;-72
2023/04/24 03:43:02;;;;;;;17.70;13.80;;;;;;;8.81;65.00;99189.80;131038;1258;107601;-72
2023/04/24 03:46:09;;;;;;;17.70;13.00;;;;;;;8.85;65.25;99187.03;131097;1254;107384;-73
2023/04/24 03:49:18;;;;;;;19.60;12.30;;;;;;;8.92;65.29;99183.96;130962;1257;107427;-72
2023/04/24 03:52:25;;;;;;;15.70;11.70;;;;;;;9.01;65.31;99183.52;130892;1258;107406;-72
2023/04/24 03:55:31;;;;;;;17.50;12.20;;;;;;;9.16;65.50;99177.46;130832;1259;107389;-72
2023/04/24 03:58:38;;;;;;;18.30;13.10;;;;;;;9.32;65.44;99178.23;130868;1259;107534;-72
2023/04/24 04:01:45;;;;;;;20.00;12.30;;;;;;;9.44;65.64;99179.27;130894;1257;107552;-72
2023/04/24 04:04:53;;;;;;;18.30;12.80;;;;;;;9.57;65.70;99177.45;131088;1253;108124;-73
2023/04/24 04:08:00;;;;;;;17.40;12.90;;;;;;;9.66;65.77;99177.52;131131;1253;107423;-72
2023/04/24 04:11:05;;;;;;;18.50;13.20;;;;;;;9.76;65.68;99176.11;131976;1253;107522;-72
2023/04/24 04:14:11;;;;;;;18.00;13.20;;;;;;;9.86;66.08;99173.76;132364;1255;107989;-74
2023/04/24 04:17:18;;;;;;;16.40;12.90;;;;;;;9.96;66.23;99170.27;130840;1253;107620;-75
2023/04/24 04:20:23;;;;;;;17.00;13.00;;;;;;;10.09;66.49;99169.52;130822;1253;107537;-74
2023/04/24 04:23:29;;;;;;;15.70;12.90;;;;;;;10.25;66.46;99168.88;130595;1259;107508;-72
2023/04/24 04:26:47;;;;;;;14.50;10.80;;;;;;;10.43;66.56;99171.30;130611;1258;107399;-73
2023/04/24 04:30:01;;;;;;;14.50;10.00;;;;;;;10.65;66.47;99168.52;130830;1253;107466;-73
2023/04/24 04:33:10;;;;;;;15.00;11.50;;;;;;;10.83;66.57;99167.26;130734;1258;107451;-73
2023/04/24 04:36:17;;;;;;;15.80;11.90;;;;;;;10.99;66.71;99166.10;130776;1258;107370;-72
2023/04/24 04:39:24;;;;;;;17.80;12.70;;;;;;;11.18;66.63;99164.10;130809;1257;107391;-73
2023/04/24 04:42:35;;;;;;;15.60;12.20;;;;;;;11.33;66.48;99164.29;130734;1258;107382;-72
2023/04/24 04:45:42;;;;;;;16.60;12.90;;;;;;;11.44;66.61;99163.40;130832;1257;107560;-73
2023/04/24 04:49:08;;;;;;;16.10;12.50;;;;;;;11.52;66.97;99164.52;130818;1257;107584;-73
2023/04/24 04:52:16;;;;;;;17.00;12.60;;;;;;;11.59;67.22;99162.27;130907;1257;107450;-73
2023/04/24 04:55:22;;;;;;;16.70;12.00;;;;;;;11.66;67.33;99165.19;130820;1253;107314;-74
2023/04/24 04:58:50;;;;;;;16.40;12.50;;;;;;;11.73;67.42;99160.42;130756;1253;107353;-75
2023/04/24 05:01:55;;;;;;;15.30;12.40;;;;;;;11.81;67.25;99158.38;130705;1258;107366;-74
2023/04/24 05:05:01;;;;;;;13.40;10.90;;;;;;;11.87;67.24;99159.98;130689;1258;107270;-74
2023/04/24 05:08:07;;;;;;;15.20;10.40;;;;;;;11.93;67.30;99157.35;130780;1258;106544;-73
2023/04/24 05:11:13;;;;;;;17.70;12.00;;;;;;;12.00;67.42;99166.80;130871;1256;107522;-73
2023/04/24 05:14:18;;;;;;;17.70;12.10;;;;;;;12.08;67.08;99163.48;130869;1256;107535;-74
2023/04/24 05:17:24;;;;;;;19.40;13.60;;;;;;;12.15;67.20;99162.08;130647;1258;107445;-74
2023/04/24 05:20:32;;;;;;;16.40;13.50;;;;;;;12.24;67.05;99165.44;130729;1256;107384;-73
2023/04/24 05:23:37;;;;;;;18.60;14.10;;;;;;;12.31;66.98;99164.33;130628;1259;107437;-73
2023/04/24 05:26:43;;;;;;;19.30;14.50;;;;;;;12.38;66.92;99166.17;130774;1258;107559;-73
2023/04/24 05:29:49;;;;;;;19.20;14.20;;;;;;;12.43;66.93;99164.15;130805;1253;107488;-73
2023/04/24 05:32:55;;;;;;;20.10;14.70;;;;;;;12.47;66.92;99161.80;130972;1255;107786;-73
2023/04/24 05:36:00;;;;;;;17.20;13.00;;;;;;;12.52;67.06;99164.14;130887;1258;107604;-73
2023/04/24 05:39:06;;;;;;;16.90;13.70;;;;;;;12.56;67.11;99163.36;130797;1255;107634;-73
2023/04/24 05:42:12;;;;;;;20.10;14.10;;;;;;;12.57;67.02;99159.26;130735;1258;107553;-72
2023/04/24 05:45:18;;;;;;;16.90;13.00;;;;;;;12.65;67.22;99157.30;130799;1253;107571;-72
2023/04/24 05:48:23;;;;;;;15.40;13.10;;;;;;;12.76;67.26;99158.77;130715;1258;107336;-72
2023/04/24 05:51:30;;;;;;;14.30;10.80;;;;;;;12.87;67.41;99160.80;130602;1259;107394;-73
2023/04/24 05:54:35;;;;;;;13.40;10.60;;;;;;;12.98;67.43;99161.30;130784;1256;107450;-72
2023/04/24 05:57:42;;;;;;;15.80;10.60;;;;;;;13.13;67.47;99155.09;130697;1259;107468;-72
2023/04/24 06:00:47;;;;;;;17.80;11.50;;;;;;;13.32;67.42;99153.77;130803;1259;107372;-72
2023/04/24 06:03:53;;;;;;;15.10;10.90;;;;;;;13.53;67.31;99150.02;130921;1256;107431;-72
2023/04/24 06:06:59;;;;;;;15.60;10.80;;;;;;;13.73;67.12;99148.77;130761;1259;107529;-72
2023/04/24 06:10:05;;;;;;;14.80;10.90;;;;;;;13.93;67.10;99144.75;130681;1259;107538;-72
2023/04/24 06:13:16;;;;;;;14.10;10.90;;;;;;;14.15;67.02;99142.98;130781;1257;107373;-72
2023/04/24 06:16:30;;;;;;;13.00;10.30;;;;;;;14.35;66.61;99142.28;130656;1258;107388;-72
2023/04/24 06:19:40;;;;;;;15.20;11.00;;;;;;;14.53;66.53;99142.21;130763;1258;107505;-71
2023/04/24 06:22:46;;;;;;;14.90;11.10;;;;;;;14.69;66.18;99146.70;130738;1259;107392;-71
2023/04/24 06:25:51;;;;;;;13.70;11.90;;;;;;;14.79;65.94;99155.70;130792;1257;107502;-72
2023/04/24 06:28:58;;;;;;;16.80;11.60;;;;;;;14.84;65.68;99149.59;130797;1253;107525;-71
2023/04/24 06:32:04;;;;;;;13.80;11.90;;;;;;;14.87;65.68;99151.69;130708;1256;107295;-73
2023/04/24 06:35:12;;;;;;;17.10;12.70;;;;;;;14.86;65.48;99152.05;130825;1257;107388;-72
2023/04/24 06:38:17;;;;;;;15.80;12.90;;;;;;;14.88;65.57;99150.95;130809;1253;107532;-72
2023/04/24 06:41:23;;;;;;;15.70;12.80;;;;;;;14.91;65.46;99146.97;130769;1259;107753;-72
2023/04/24 06:44:29;;;;;;;15.70;12.40;;;;;;;14.93;65.34;99150.48;130776;1253;107487;-72
2023/04/24 06:47:34;;;;;;;14.70;12.50;;;;;;;14.97;65.48;99147.46;130781;1257;107575;-73
2023/04/24 06:50:40;;;;;;;15.70;12.60;;;;;;;15.04;65.41;99148.65;130757;1257;107262;-72
2023/04/24 06:53:45;;;;;;;15.90;12.80;;;;;;;15.08;65.18;99150.55;130826;1259;107218;-72
2023/04/24 06:56:51;;;;;;;16.70;12.80;;;;;;;15.13;65.42;99149.59;130702;1258;107613;-73
2023/04/24 06:59:57;;;;;;;17.00;13.00;;;;;;;15.23;65.36;99147.58;130893;1257;107555;-73
2023/04/24 07:03:03;;;;;;;14.10;11.60;;;;;;;15.32;65.17;99145.73;130881;1259;107561;-73
2023/04/24 07:06:11;;;;;;;14.90;11.90;;;;;;;15.40;65.14;99146.76;130831;1254;107547;-72
2023/04/24 07:09:18;;;;;;;15.00;12.30;;;;;;;15.53;64.93;99150.55;130807;1254;107267;-72
2023/04/24 07:12:23;;;;;;;14.80;11.90;;;;;;;15.68;64.96;99142.67;130763;1253;107158;-71
2023/04/24 07:15:29;;;;;;;14.50;11.70;;;;;;;15.87;64.76;99141.28;130812;1258;107672;-71
2023/04/24 07:18:36;;;;;;;14.10;11.80;;;;;;;16.02;64.56;99140.54;130844;1259;107433;-71
2023/04/24 07:21:41;;;;;;;14.70;12.30;;;;;;;16.14;64.53;99140.64;130797;1253;107375;-72
2023/04/24 07:24:47;;;;;;;13.20;11.80;;;;;;;16.25;64.76;99137.17;130763;1257;107572;-72
2023/04/24 07:27:52;;;;;;;14.10;12.00;;;;;;;16.43;64.75;99133.64;130705;1257;107414;-72
2023/04/24 07:30:59;;;;;;;14.40;12.20;;;;;;;16.69;64.84;99130.40;130763;1258;107548;-72
2023/04/24 07:34:05;;;;;;;14.50;10.90;;;;;;;16.96;64.57;99127.83;130799;1259;107270;-71
2023/04/24 07:37:10;;;;;;;13.90;11.20;;;;;;;17.25;64.22;99122.14;130838;1266;107492;-72
2023/04/24 07:40:16;;;;;;;14.30;10.30;;;;;;;17.56;64.13;99124.56;130777;1258;107410;-71
2023/04/24 07:43:23;;;;;;;10.80;9.70;;;;;;;17.86;63.51;99129.14;130829;1258;107363;-71
2023/04/24 07:46:30;;;;;;;10.60;9.40;;;;;;;18.12;62.73;99120.65;130849;1259;107605;-71
2023/04/24 07:49:36;;;;;;;10.60;8.30;;;;;;;18.26;61.49;99117.30;130905;1259;107550;-71
2023/04/24 07:52:41;;;;;;;9.30;8.20;;;;;;;18.35;61.54;99113.39;130843;1265;107256;-72
2023/04/24 07:55:47;;;;;;;8.70;7.50;;;;;;;18.42;61.45;99105.27;130742;1259;107354;-73
2023/04/24 07:58:52;;;;;;;9.90;7.80;;;;;;;18.51;61.42;99107.48;130780;1254;107415;-71
2023/04/24 08:01:58;;;;;;;8.50;7.60;;;;;;;18.58;60.82;99107.33;130680;1253;107511;-71
2023/04/24 08:05:03;;;;;;;10.00;7.90;;;;;;;18.57;60.60;99110.27;130790;1257;107250;-72
2023/04/24 08:08:09;;;;;;;8.90;7.70;;;;;;;18.50;59.92;99108.42;130836;1266;107656;-72
2023/04/24 08:11:14;;;;;;;7.70;6.60;;;;;;;18.44;59.68;99112.66;130751;1257;107384;-71
2023/04/24 08:14:20;;;;;;;10.00;7.40;;;;;;;18.36;59.65;99109.88;130713;1257;107580;-72
2023/04/24 08:17:26;;;;;;;8.80;7.90;;;;;;;18.31;59.57;99111.91;130870;1253;107224;-72
2023/04/24 08:20:31;;;;;;;10.90;8.60;;;;;;;18.33;59.60;99110.02;130766;1258;107486;-71
2023/04/24 08:23:37;;;;;;;10.30;8.40;;;;;;;18.47;59.60;99111.96;130716;1259;107376;-71
2023/04/24 08:26:43;;;;;;;9.30;8.00;;;;;;;18.67;59.34;99109.27;130721;1259;107443;-72
2023/04/24 08:29:49;;;;;;;10.80;7.80;;;;;;;18.85;58.95;99109.59;130787;1256;107569;-72
2023/04/24 08:32:54;;;;;;;9.40;7.50;;;;;;;18.98;58.53;99112.33;130717;1257;107269;-72
2023/04/24 08:36:00;;;;;;;8.90;7.50;;;;;;;19.05;58.21;99107.73;130705;1256;107636;-71
2023/04/24 08:39:06;;;;;;;9.90;7.20;;;;;;;19.09;57.23;99107.72;130741;1257;107377;-71
2023/04/24 08:42:13;;;;;;;8.80;7.00;;;;;;;19.12;56.81;99104.15;130716;1253;107166;-72
2023/04/24 08:45:21;;;;;;;7.90;6.20;;;;;;;19.15;56.42;99104.77;130791;1256;107556;-71
2023/04/24 08:48:27;;;;;;;6.70;5.90;;;;;;;19.18;55.54;99098.77;130896;1264;107236;-71
2023/04/24 08:51:33;;;;;;;7.10;5.60;;;;;;;19.22;55.39;99097.57;130779;1258;107242;-71
2023/04/24 08:54:40;;;;;;;9.20;5.50;;;;;;;19.21;54.79;99093.37;130953;1257;107390;-74
2023/04/24 08:57:49;;;;;;;5.10;4.60;;;;;;;19.12;54.33;99097.83;131067;1258;107532;-72
2023/04/24 09:00:57;;;;;;;8.20;5.40;;;;;;;19.02;54.45;99099.98;130731;1256;106869;-72
2023/04/24 09:04:05;;;;;;;7.00;5.90;;;;;;;19.01;54.66;99099.65;130851;1259;107775;-71
2023/04/24 09:07:13;;;;;;;6.60;5.90;;;;;;;19.10;54.96;99096.55;130979;1258;107555;-73
2023/04/24 09:10:18;;;;;;;7.90;6.30;;;;;;;19.32;54.43;99090.45;130807;1260;106479;-72
2023/04/24 09:13:25;;;;;;;7.80;5.70;;;;;;;19.54;54.01;99089.61;130824;1256;106634;-72
2023/04/24 09:16:33;;;;;;;6.00;5.40;;;;;;;19.69;53.47;99089.61;130738;1264;107259;-72
2023/04/24 09:19:38;;;;;;;8.10;5.60;;;;;;;19.76;52.36;99091.69;131065;1256;106727;-73
2023/04/24 09:22:46;;;;;;;7.20;5.60;;;;;;;19.78;52.05;99091.14;130853;1258;107559;-71
2023/04/24 09:25:57;;;;;;;6.20;5.50;;;;;;;19.83;52.32;99090.84;130824;1256;107595;-72
2023/04/24 09:29:04;;;;;;;9.90;6.20;;;;;;;19.86;52.20;99089.70;130723;1266;107472;-72
2023/04/24 09:32:24;;;;;;;9.40;6.30;;;;;;;19.87;51.62;99088.05;130709;1259;107240;-72
2023/04/24 09:35:33;;;;;;;8.10;6.50;;;;;;;19.89;52.07;99081.42;130823;1258;107556;-71
2023/04/24 09:38:39;;;;;;;9.00;5.40;;;;;;;19.92;52.01;99083.86;130895;1257;107468;-71
2023/04/24 09:41:49;;;;;;;6.10;5.40;;;;;;;19.97;50.03;99078.48;131043;1258;107267;-72
2023/04/24 09:44:55;;;;;;;6.80;5.50;;;;;;;19.98;50.40;99077.23;131526;1255;107448;-74
2023/04/24 09:48:01;;;;;;;7.10;5.60;;;;;;;20.02;50.59;99074.88;130774;1255;107619;-73
2023/04/24 09:51:10;;;;;;;8.60;6.00;;;;;;;20.04;50.29;99069.39;130779;1267;107482;-73
2023/04/24 09:54:20;;;;;;;8.70;6.10;;;;;;;20.10;50.08;99065.92;130865;1258;107243;-73
2023/04/24 09:57:26;;;;;;;7.60;6.10;;;;;;;20.18;49.64;99062.48;129959;1258;1098239;-74
2023/04/24 10:00:33;;;;;;;7.10;5.70;;;;;;;20.27;49.49;99058.40;130809;1257;107433;-73
2023/04/24 10:03:42;;;;;;;7.00;6.10;;;;;;;20.35;50.01;99057.66;130786;1257;106803;-73
2023/04/24 10:06:49;;;;;;;7.50;6.30;;;;;;;20.42;49.71;99054.73;130834;1265;107688;-74
2023/04/24 10:09:55;;;;;;;7.40;5.60;;;;;;;20.49;49.57;99047.86;130768;1258;107545;-75
2023/04/24 10:13:01;;;;;;;10.50;5.40;;;;;;;20.58;49.35;99044.48;130834;1257;107472;-76
2023/04/24 10:16:07;;;;;;;5.90;5.30;;;;;;;20.70;49.05;99044.13;130825;1267;107543;-74
2023/04/24 10:19:13;;;;;;;5.30;4.80;;;;;;;20.73;48.52;99044.57;130685;1259;107842;-74
2023/04/24 10:22:20;;;;;;;7.50;5.00;;;;;;;20.75;48.11;99041.88;130687;1258;107554;-74
2023/04/24 10:25:27;;;;;;;6.10;5.10;;;;;;;20.82;48.03;99037.69;130757;1258;107516;-75
2023/04/24 10:28:34;;;;;;;7.90;5.30;;;;;;;20.87;47.74;99032.13;130835;1256;107355;-75
2023/04/24 10:31:41;;;;;;;6.20;4.90;;;;;;;20.91;47.48;99026.70;130755;1256;107548;-74
2023/04/24 10:34:47;;;;;;;5.50;4.60;;;;;;;20.93;46.62;99023.26;130878;1260;106172;-77
2023/04/24 10:37:55;;;;;;;5.20;4.70;;;;;;;20.98;46.53;99020.06;130708;1254;107501;-75
2023/04/24 10:41:13;;;;;;;6.60;4.60;;;;;;;21.05;46.14;99017.59;130651;1258;108137;-76
2023/04/24 10:44:23;;;;;;;6.40;4.70;;;;;;;21.08;45.40;99017.26;130912;1258;107249;-75
2023/04/24 10:47:28;;;;;;;5.40;4.70;;;;;;;21.06;45.23;99010.95;130864;1258;107542;-77
2023/04/24 10:50:47;;;;;;;7.50;4.60;;;;;;;21.06;45.75;99004.27;130853;1266;107623;-74
2023/04/24 10:53:53;;;;;;;7.40;4.60;;;;;;;21.08;45.53;99002.66;130739;1258;107537;-76
2023/04/24 10:57:30;;;;;;;6.10;4.50;;;;;;;21.11;45.30;98998.48;130781;1256;107577;-76
2023/04/24 11:00:39;;;;;;;6.50;4.70;;;;;;;21.12;44.98;98988.88;130689;1258;107529;-74
2023/04/24 11:03:56;;;;;;;4.90;4.40;;;;;;;21.13;44.45;98988.46;130769;1257;107517;-74
2023/04/24 11:07:03;;;;;;;4.90;4.40;;;;;;;21.17;44.00;98994.05;130900;1256;107460;-75
2023/04/24 11:10:09;;;;;;;5.00;4.30;;;;;;;21.27;43.63;98993.61;130790;1258;107276;-75
2023/04/24 11:13:23;;;;;;;6.20;4.70;;;;;;;21.37;43.85;98989.66;130909;1264;107515;-75
2023/04/24 11:16:32;;;;;;;4.80;4.30;;;;;;;21.50;43.44;98992.68;130738;1266;107568;-75
2023/04/24 11:19:39;;;;;;;7.30;4.70;;;;;;;21.66;43.84;98993.08;130809;1259;107317;-75
2023/04/24 11:22:45;;;;;;;6.10;5.00;;;;;;;21.83;43.59;98985.56;130632;1260;105862;-75
2023/04/24 11:26:17;;;;;;;5.70;4.80;;;;;;;22.00;43.65;98985.88;130638;1257;107280;-76
2023/04/24 11:29:24;;;;;;;5.70;4.70;;;;;;;22.23;43.37;98979.66;130710;1259;107498;-76
2023/04/24 11:32:31;;;;;;;5.60;4.60;;;;;;;22.41;43.13;98978.81;130803;1258;107575;-75
2023/04/24 11:35:41;;;;;;;5.10;4.20;;;;;;;22.50;42.76;98982.89;130878;1256;107400;-75
2023/04/24 11:38:47;;;;;;;4.60;4.10;;;;;;;22.55;42.36;98980.25;130728;1266;107423;-75
2023/04/24 11:41:53;;;;;;;5.70;4.90;;;;;;;22.52;41.36;98978.88;130781;1257;107477;-75
2023/04/24 11:44:59;;;;;;;6.60;5.30;;;;;;;22.46;42.70;98987.97;130794;1257;107456;-75
2023/04/24 11:48:06;;;;;;;6.00;5.40;;;;;;;22.40;41.88;98993.42;130713;1268;108006;-76
2023/04/24 11:51:12;;;;;;;7.80;5.20;;;;;;;22.33;42.34;98994.25;130761;1257;107541;-76
2023/04/24 11:54:18;;;;;;;5.20;4.70;;;;;;;22.25;41.33;99013.30;130698;1268;106643;-77
2023/04/24 11:57:27;;;;;;;5.70;4.50;;;;;;;22.01;41.21;99020.54;130696;1266;107438;-76
2023/04/24 12:00:35;;;;;;;8.20;4.70;;;;;;;21.65;41.23;99023.50;130817;1255;106706;-75
2023/04/24 12:03:42;;;;;;;7.80;5.00;;;;;;;21.38;42.07;99030.95;130896;1254;107520;-76
2023/04/24 12:07:04;;;;;;;7.80;4.90;;;;;;;21.18;42.57;99030.56;130634;1262;107317;-75
2023/04/24 12:10:11;;;;;;;7.20;5.30;;;;;;;20.99;44.01;99026.86;130543;1259;107484;-77
2023/04/24 12:13:16;;;;;;;5.80;4.90;;;;;;;20.61;45.09;99042.96;130691;1256;108818;-76
2023/04/24 12:16:22;;;;;;;7.00;4.90;;;;;;;20.24;45.86;99054.80;130742;1258;107521;-75
2023/04/24 12:19:30;;;;;;;6.10;5.40;;;;;;;19.99;47.07;99061.06;130868;1254;107520;-75
2023/04/24 12:22:50;;;;;;;6.00;5.10;;;;;;;19.71;47.38;99065.80;130800;1264;107561;-75
2023/04/24 12:26:00;;;;;;;5.30;4.70;;;;;;;19.46;47.62;99068.52;130887;1258;106671;-75
2023/04/24 12:29:07;;;;;;;6.20;4.80;;;;;;;19.27;47.59;99074.40;130838;1257;107267;-76
2023/04/24 12:32:19;;;;;;;6.30;4.50;;;;;;;19.01;47.53;99082.02;130812;1268;107460;-74
2023/04/24 12:35:26;;;;;;;4.50;4.10;;;;;;;18.78;47.50;99091.98;130904;1261;106809;-74
2023/04/24 12:38:39;;;;;;;5.80;4.20;;;;;;;18.61;48.29;99100.80;130835;1265;107266;-75
2023/04/24 12:41:57;;;;;;;5.10;3.80;;;;;;;18.41;47.87;99103.53;130826;1260;107353;-75
2023/04/24 12:45:06;;;;;;;4.20;3.80;;;;;;;18.24;47.75;99083.66;130876;1260;106805;-74
2023/04/24 12:48:12;;;;;;;4.70;3.80;;;;;;;18.08;48.12;99075.52;130803;1259;107563;-75
2023/04/24 12:51:17;;;;;;;5.20;4.10;;;;;;;17.94;47.89;99063.09;130860;1257;105604;-75
2023/04/24 12:54:23;;;;;;;4.40;4.00;;;;;;;17.89;48.01;99053.47;130721;1260;107406;-75
2023/04/24 12:57:30;;;;;;;4.60;4.10;;;;;;;17.87;48.11;99053.29;130988;1268;107541;-75
2023/04/24 13:00:37;;;;;;;4.50;4.10;;;;;;;17.85;47.78;99052.97;130562;1259;107550;-75
2023/04/24 13:03:43;;;;;;;4.90;4.20;;;;;;;17.86;47.72;99038.05;130729;1260;105922;-75
2023/04/24 13:06:48;;;;;;;4.70;4.20;;;;;;;17.87;47.96;99029.38;130594;1268;106146;-75
2023/04/24 13:09:55;;;;;;;5.20;4.70;;;;;;;17.86;47.80;99014.73;130683;1255;107532;-76
2023/04/24 13:13:01;;;;;;;5.60;4.50;;;;;;;17.86;48.02;99004.92;130739;1259;107472;-75
2023/04/24 13:16:07;;;;;;;6.30;5.40;;;;;;;17.85;48.39;98998.34;130729;1259;107438;-75
2023/04/24 13:19:13;;;;;;;6.30;5.00;;;;;;;17.79;48.43;98978.38;132245;1253;107609;-76
2023/04/24 13:22:19;;;;;;;9.10;6.10;;;;;;;17.80;48.55;98967.39;130882;1254;107345;-75
2023/04/24 13:25:24;;;;;;;7.80;5.70;;;;;;;17.84;48.62;98963.30;130797;1258;108583;-75
2023/04/24 13:28:30;;;;;;;6.20;5.40;;;;;;;17.89;48.59;98960.79;130646;1257;108014;-75
2023/04/24 13:31:36;;;;;;;5.90;5.30;;;;;;;17.91;48.46;98959.11;130831;1257;107537;-75
2023/04/24 13:34:41;;;;;;;5.90;5.30;;;;;;;17.95;48.38;98949.81;130916;1257;107598;-75
2023/04/24 13:37:47;;;;;;;6.60;5.80;;;;;;;18.00;48.29;98944.00;130604;1266;109040;-77
2023/04/24 13:40:52;;;;;;;5.50;4.80;;;;;;;18.07;48.10;98942.27;130881;1260;107423;-75
2023/04/24 13:43:58;;;;;;;5.80;5.20;;;;;;;18.15;48.10;98937.48;130644;1257;107531;-75
2023/04/24 13:47:03;;;;;;;5.90;5.30;;;;;;;18.26;47.81;98926.94;130774;1258;107421;-76
2023/04/24 13:50:11;;;;;;;5.90;5.30;;;;;;;18.39;47.78;98921.87;130905;1257;107834;-76
2023/04/24 13:53:16;;;;;;;5.40;4.90;;;;;;;18.53;47.67;98918.17;130794;1258;107562;-76
2023/04/24 13:56:22;;;;;;;7.20;4.40;;;;;;;18.67;47.44;98911.27;130750;1267;107509;-76
2023/04/24 13:59:28;;;;;;;6.00;4.40;;;;;;;18.88;47.23;98901.23;130597;1257;106476;-74
2023/04/24 14:02:33;;;;;;;5.00;4.30;;;;;;;19.11;47.21;98897.84;130699;1255;107651;-74
2023/04/24 14:05:38;;;;;;;4.90;4.40;;;;;;;19.37;46.76;98888.77;130683;1257;107554;-74
2023/04/24 14:08:44;;;;;;;6.50;4.30;;;;;;;19.60;46.34;98889.48;130702;1257;107522;-74
2023/04/24 14:11:50;;;;;;;8.30;4.50;;;;;;;19.84;45.98;98891.46;131000;1257;107381;-75